Terminal Aerodrome Forecast
Issued by NWS Sterling, VA

Current Version | Previous Version | Graphics & Text | Print | Product List | Glossary On
Versions: 1 2 3 4 5 6 7 8 9 10 11 12 13 14 15 16 17 18
000
FTUS41 KLWX 280535
TAFMRB
TAF
KMRB 280535Z 2806/2906 33013KT P6SM BKN250
     FM281400 32014G23KT P6SM BKN060
     FM282200 32013KT P6SM SCT060
     FM290000 32009KT P6SM SCT250=

USA.gov is the U.S. government's official web portal to all federal, state and local government web resources and services.